Time;durP1;ratioP1;P1;durP2;ratioP2;P2;SDS_P1;SDS_P2;PMS_P1;PMS_P2;Temp;Humidity;BMP_temperature;BMP_pressure;BME280_temperature;BME280_humidity;BME280_pressure;Samples;Min_cycle;Max_cycle;Signal;HPM_P1;HPM_P2
2021/10/17 00:00:45;;;;;;;43.17;24.87;;;;;;;9.91;77.68;100892.07;125309;1098;104198;-81
2021/10/17 00:03:13;;;;;;;42.93;25.27;;;;;;;9.92;77.21;100895.58;125224;1102;104302;-80
2021/10/17 00:05:42;;;;;;;45.50;26.70;;;;;;;9.92;77.26;100895.58;125253;1102;104207;-79
2021/10/17 00:08:12;;;;;;;45.75;26.25;;;;;;;9.92;77.39;100892.95;125323;1102;104328;-80
2021/10/17 00:10:39;;;;;;;48.83;27.50;;;;;;;9.92;77.78;100885.97;125238;1102;104159;-80
2021/10/17 00:13:09;;;;;;;44.57;26.07;;;;;;;9.94;77.88;100893.91;125305;1099;104301;-80
2021/10/17 00:15:39;;;;;;;44.50;25.23;;;;;;;9.94;77.50;100886.05;125309;1099;104357;-80
2021/10/17 00:18:08;;;;;;;43.60;25.40;;;;;;;9.94;77.31;100889.58;126354;1099;104140;-80
2021/10/17 00:20:40;;;;;;;41.90;26.00;;;;;;;9.96;77.79;100884.41;126308;1099;104210;-82
2021/10/17 00:23:09;;;;;;;46.23;26.90;;;;;;;9.97;77.80;100889.72;126278;1099;104137;-80
2021/10/17 00:25:37;;;;;;;44.40;25.77;;;;;;;9.98;77.57;100886.25;126303;1099;104191;-80
2021/10/17 00:28:07;;;;;;;42.83;25.17;;;;;;;9.98;78.01;100894.11;126333;1099;104137;-80
2021/10/17 00:30:41;;;;;;;44.27;26.33;;;;;;;9.99;77.55;100893.30;126372;1099;104188;-80
2021/10/17 00:33:10;;;;;;;46.57;25.73;;;;;;;10.00;77.37;100902.05;126275;1097;104271;-80
2021/10/17 00:35:38;;;;;;;45.23;25.83;;;;;;;10.00;77.78;100892.48;126243;1099;105180;-80
2021/10/17 00:38:06;;;;;;;45.03;26.47;;;;;;;10.01;77.62;100890.74;126343;1098;104589;-80
2021/10/17 00:40:34;;;;;;;42.73;24.67;;;;;;;10.01;78.06;100889.00;126320;1098;104207;-79
2021/10/17 00:43:05;;;;;;;48.07;26.63;;;;;;;10.01;77.51;100882.88;126278;1099;104268;-80
2021/10/17 00:45:32;;;;;;;47.97;27.90;;;;;;;10.01;78.06;100886.39;126294;1099;104146;-80
2021/10/17 00:48:04;;;;;;;47.27;26.03;;;;;;;10.02;77.49;100884.65;126320;1099;104489;-80
2021/10/17 00:50:34;;;;;;;44.87;26.10;;;;;;;10.03;78.08;100883.83;126340;1099;104149;-80
2021/10/17 00:53:03;;;;;;;46.37;25.50;;;;;;;10.02;77.78;100882.95;126281;1099;104150;-80
2021/10/17 00:55:31;;;;;;;46.27;26.97;;;;;;;10.03;77.94;100879.47;126302;1099;104245;-80
2021/10/17 00:58:01;;;;;;;47.67;27.67;;;;;;;10.03;77.28;100886.45;126336;1099;104956;-81
2021/10/17 01:00:29;;;;;;;45.10;27.43;;;;;;;10.03;77.59;100876.85;126303;1098;104286;-80
2021/10/17 01:02:57;;;;;;;45.87;27.03;;;;;;;10.03;77.51;100881.20;126360;1099;104139;-80
2021/10/17 01:05:26;;;;;;;44.07;26.17;;;;;;;10.02;77.36;100875.08;126298;1099;104140;-81
2021/10/17 01:07:55;;;;;;;45.93;26.80;;;;;;;10.02;77.55;100869.84;126351;1099;104319;-81
2021/10/17 01:10:22;;;;;;;44.97;26.47;;;;;;;10.02;77.54;100875.08;126318;1099;104143;-80
2021/10/17 01:12:50;;;;;;;46.10;26.13;;;;;;;10.01;77.68;100875.89;126347;1099;104136;-81
2021/10/17 01:15:20;;;;;;;47.53;27.13;;;;;;;10.01;77.55;100873.27;126279;1099;104166;-80
2021/10/17 01:17:52;;;;;;;42.00;24.80;;;;;;;10.02;77.77;100882.02;126304;1099;104146;-80
2021/10/17 01:20:20;;;;;;;45.67;26.10;;;;;;;10.03;77.81;100882.09;126295;1099;104191;-80
2021/10/17 01:22:50;;;;;;;44.80;26.05;;;;;;;10.03;78.05;100875.97;126274;1099;104136;-81
2021/10/17 01:25:18;;;;;;;45.67;24.80;;;;;;;10.02;77.69;100877.70;126262;1099;104286;-81
2021/10/17 01:27:47;;;;;;;45.90;26.33;;;;;;;10.02;77.71;100879.41;126296;1099;104325;-79
2021/10/17 01:30:19;;;;;;;48.70;28.45;;;;;;;10.02;77.70;100880.32;126278;1099;104140;-80
2021/10/17 01:32:51;;;;;;;44.93;26.43;;;;;;;10.01;77.76;100881.14;126308;1099;104220;-79
2021/10/17 01:35:19;;;;;;;45.60;26.80;;;;;;;10.01;77.45;100886.39;126290;1099;104206;-80
2021/10/17 01:37:47;;;;;;;45.17;26.23;;;;;;;10.01;78.16;100886.39;126329;1099;104201;-79
2021/10/17 01:40:16;;;;;;;44.13;25.23;;;;;;;10.03;77.68;100892.58;126314;1099;104136;-79
2021/10/17 01:42:46;;;;;;;44.30;25.97;;;;;;;10.03;77.50;100887.34;126325;1099;104784;-80
2021/10/17 01:45:15;;;;;;;43.53;24.63;;;;;;;10.04;77.73;100894.38;126304;1099;104273;-80
2021/10/17 01:47:47;;;;;;;41.60;24.47;;;;;;;10.05;77.96;100897.89;126328;1099;104140;-80
2021/10/17 01:50:16;;;;;;;43.53;25.23;;;;;;;10.05;77.52;100896.19;126291;1099;104210;-80
2021/10/17 01:52:45;;;;;;;39.83;23.43;;;;;;;10.05;77.36;100895.27;126276;1099;104302;-79
2021/10/17 01:55:14;;;;;;;44.67;24.37;;;;;;;10.07;77.98;100896.26;126260;1099;104144;-80
2021/10/17 01:57:42;;;;;;;44.93;25.17;;;;;;;10.07;77.43;100893.63;126365;1099;105344;-79
2021/10/17 02:00:13;;;;;;;41.07;23.00;;;;;;;10.08;77.43;100901.56;126272;1099;104223;-79
2021/10/17 02:02:46;;;;;;;41.53;23.27;;;;;;;10.07;77.44;100893.63;126321;1099;104208;-80
2021/10/17 02:05:28;;;;;;;42.13;22.80;;;;;;;10.07;77.22;100894.52;126246;1099;104188;-78
2021/10/17 02:07:57;;;;;;;38.90;22.20;;;;;;;10.08;77.31;100896.33;126206;1099;104190;-81
2021/10/17 02:10:25;;;;;;;37.60;21.47;;;;;;;10.10;77.25;100893.77;126355;1099;104149;-80
2021/10/17 02:12:55;;;;;;;39.33;22.50;;;;;;;10.10;77.11;100899.02;126328;1099;104275;-81
2021/10/17 02:15:23;;;;;;;36.93;22.03;;;;;;;10.12;77.54;100892.10;126238;1099;104265;-81
2021/10/17 02:17:51;;;;;;;41.37;21.50;;;;;;;10.13;77.21;100896.53;126314;1099;104146;-81
2021/10/17 02:20:19;;;;;;;38.40;21.87;;;;;;;10.13;77.21;100896.53;126282;1099;104274;-80
2021/10/17 02:22:47;;;;;;;40.73;22.90;;;;;;;10.14;77.61;100887.81;126278;1099;104166;-80
2021/10/17 02:25:15;;;;;;;38.33;22.57;;;;;;;10.13;76.99;100896.53;126290;1099;104220;-80
2021/10/17 02:27:43;;;;;;;42.40;22.67;;;;;;;10.12;77.56;100892.10;126280;1098;104194;-81
2021/10/17 02:30:12;;;;;;;41.80;23.33;;;;;;;10.14;77.39;100892.17;126283;1099;104165;-81
2021/10/17 02:32:43;;;;;;;40.83;22.80;;;;;;;10.12;77.45;100891.22;126252;1099;104188;-80
2021/10/17 02:35:19;;;;;;;41.23;24.30;;;;;;;10.11;77.22;100895.54;126226;1098;104348;-80
2021/10/17 02:37:47;;;;;;;40.10;22.70;;;;;;;10.12;77.37;100892.10;126281;1099;104200;-80
2021/10/17 02:40:15;;;;;;;44.80;24.53;;;;;;;10.11;77.38;100892.92;126184;1099;104414;-81
2021/10/17 02:42:44;;;;;;;41.37;23.10;;;;;;;10.11;76.99;100900.78;126339;1099;104367;-82
2021/10/17 02:45:12;;;;;;;39.87;22.47;;;;;;;10.11;77.17;100889.41;126318;1099;104146;-80
2021/10/17 02:47:41;;;;;;;39.13;23.03;;;;;;;10.10;77.30;100899.02;126334;1099;104274;-80
2021/10/17 02:50:09;;;;;;;39.63;22.77;;;;;;;10.09;76.94;100894.59;126325;1099;104277;-81
2021/10/17 02:52:37;;;;;;;38.37;22.00;;;;;;;10.08;77.02;100893.70;126302;1099;104284;-81
2021/10/17 02:55:06;;;;;;;39.20;22.40;;;;;;;10.08;76.90;100893.70;126354;1099;104284;-80
2021/10/17 02:57:34;;;;;;;41.40;22.93;;;;;;;10.08;76.87;100891.08;126243;1099;104147;-81
2021/10/17 03:00:03;;;;;;;39.80;22.37;;;;;;;10.10;76.74;100892.85;126335;1099;104146;-81
2021/10/17 03:02:33;;;;;;;42.17;23.77;;;;;;;10.10;76.79;100898.09;126308;1099;104260;-80
2021/10/17 03:05:02;;;;;;;44.57;23.57;;;;;;;10.10;76.78;100898.09;126306;1099;104370;-81
2021/10/17 03:07:30;;;;;;;42.23;23.13;;;;;;;10.07;77.04;100894.52;126293;1099;105490;-80
2021/10/17 03:10:04;;;;;;;39.53;22.32;;;;;;;10.06;77.24;100900.58;126314;1098;104146;-80
2021/10/17 03:12:34;;;;;;;40.30;22.77;;;;;;;10.05;76.90;100903.14;126294;1099;104190;-81
2021/10/17 03:15:06;;;;;;;39.93;23.40;;;;;;;10.04;77.26;100907.50;126342;1099;104207;-80
2021/10/17 03:17:35;;;;;;;41.77;22.77;;;;;;;10.03;77.23;100897.83;126283;1099;104285;-81
2021/10/17 03:20:04;;;;;;;40.23;22.93;;;;;;;10.02;76.92;100898.67;126314;1099;104274;-80
2021/10/17 03:22:39;;;;;;;38.40;21.43;;;;;;;10.02;77.30;100897.75;126345;1099;104146;-80
2021/10/17 03:25:08;;;;;;;40.53;20.97;;;;;;;10.01;76.64;100899.49;126334;1099;104275;-80
2021/10/17 03:27:36;;;;;;;37.13;19.87;;;;;;;10.01;76.47;100904.73;126292;1099;104278;-81
2021/10/17 03:30:07;;;;;;;38.15;21.55;;;;;;;10.01;76.57;100904.73;126298;1099;104460;-80
2021/10/17 03:32:35;;;;;;;42.00;21.83;;;;;;;10.00;76.83;100910.83;126351;1099;104136;-79
2021/10/17 03:35:05;;;;;;;38.27;21.57;;;;;;;9.99;76.57;100911.65;126294;1099;104175;-80
2021/10/17 03:37:34;;;;;;;39.57;21.20;;;;;;;9.99;76.81;100910.77;126313;1099;104189;-81
2021/10/17 03:40:03;;;;;;;36.17;19.77;;;;;;;9.99;77.01;100908.14;126275;1099;104397;-80
2021/10/17 03:42:34;;;;;;;38.60;21.10;;;;;;;9.98;76.50;100920.33;126327;1099;104318;-80
2021/10/17 03:45:02;;;;;;;36.33;20.97;;;;;;;9.96;76.75;100919.38;126366;1099;104149;-80
2021/10/17 03:47:30;;;;;;;37.10;20.60;;;;;;;9.96;76.89;100923.73;126290;1099;104175;-81
2021/10/17 03:50:00;;;;;;;40.50;21.53;;;;;;;9.95;76.62;100930.67;126361;1099;104136;-79
2021/10/17 03:52:33;;;;;;;36.83;20.23;;;;;;;9.94;76.38;100925.37;126341;1099;104265;-81
2021/10/17 03:55:02;;;;;;;35.87;19.70;;;;;;;9.93;76.87;100928.84;126282;1099;104179;-80
2021/10/17 03:57:30;;;;;;;35.23;21.03;;;;;;;9.93;76.40;100927.10;126272;1099;104146;-81
2021/10/17 03:59:58;;;;;;;35.47;19.60;;;;;;;9.93;76.85;100920.97;126296;1099;104165;-81
2021/10/17 04:02:28;;;;;;;34.13;19.53;;;;;;;9.94;76.25;100933.23;126369;1099;104219;-80
2021/10/17 04:04:56;;;;;;;38.60;20.87;;;;;;;9.93;76.29;100927.10;126318;1099;104142;-80
2021/10/17 04:07:29;;;;;;;35.47;19.07;;;;;;;9.92;76.67;100930.54;126253;1099;104213;-80
2021/10/17 04:09:58;;;;;;;34.90;19.43;;;;;;;9.89;76.21;100933.94;126327;1098;104698;-81
2021/10/17 04:12:25;;;;;;;34.17;19.67;;;;;;;9.90;76.18;100929.58;126291;1099;104197;-80
2021/10/17 04:15:03;;;;;;;35.10;19.40;;;;;;;9.90;76.19;100932.20;126324;1099;104220;-80
2021/10/17 04:17:31;;;;;;;37.27;19.23;;;;;;;9.89;76.77;100933.94;126262;1098;104388;-83
2021/10/17 04:19:59;;;;;;;34.30;18.67;;;;;;;9.89;76.44;100936.56;126324;1099;104473;-80
2021/10/17 04:22:27;;;;;;;36.03;20.03;;;;;;;9.88;76.50;100931.25;126362;1099;104140;-80
2021/10/17 04:24:55;;;;;;;36.27;18.87;;;;;;;9.86;76.38;100938.13;126289;1099;104252;-80
2021/10/17 04:27:23;;;;;;;33.20;18.23;;;;;;;9.85;76.58;100942.48;126302;1098;104156;-81
2021/10/17 04:29:53;;;;;;;32.00;18.10;;;;;;;9.87;76.19;100937.31;126346;1099;104175;-80
2021/10/17 04:32:20;;;;;;;37.17;19.53;;;;;;;9.87;75.99;100939.93;126270;1099;104156;-81
2021/10/17 04:34:48;;;;;;;31.87;17.57;;;;;;;9.87;75.90;100945.17;126236;1098;104159;-80
2021/10/17 04:37:16;;;;;;;39.27;18.93;;;;;;;9.85;76.29;100939.86;125252;1099;104325;-80
2021/10/17 04:39:44;;;;;;;36.47;19.33;;;;;;;9.85;76.25;100941.59;125273;1099;104137;-79
2021/10/17 04:42:13;;;;;;;35.63;18.30;;;;;;;9.84;75.96;100951.16;125267;1099;104441;-79
2021/10/17 04:44:41;;;;;;;30.70;17.43;;;;;;;9.84;75.87;100951.16;125243;1099;104162;-79
2021/10/17 04:47:09;;;;;;;33.97;17.70;;;;;;;9.87;76.51;100953.03;125303;1102;104169;-80
2021/10/17 04:49:40;;;;;;;31.27;17.50;;;;;;;9.88;76.30;100960.97;125297;1099;104704;-79
2021/10/17 04:52:07;;;;;;;31.90;17.73;;;;;;;9.89;76.26;100957.53;125325;1102;104178;-80
2021/10/17 04:54:35;;;;;;;34.47;18.00;;;;;;;9.90;76.13;100953.17;125354;1099;104309;-81
2021/10/17 04:57:04;;;;;;;35.80;18.83;;;;;;;9.91;75.76;100952.36;125294;1099;104287;-80
2021/10/17 04:59:33;;;;;;;34.20;18.00;;;;;;;9.92;75.92;100963.73;125286;1099;104198;-80
2021/10/17 05:02:03;;;;;;;30.07;18.37;;;;;;;9.92;76.28;100961.11;125261;1099;104351;-80
2021/10/17 05:04:31;;;;;;;34.77;17.43;;;;;;;9.94;76.26;100959.45;125282;1099;104194;-79
2021/10/17 05:07:00;;;;;;;36.83;17.40;;;;;;;9.96;75.89;100960.44;125279;1099;104182;-81
2021/10/17 05:09:28;;;;;;;34.50;18.10;;;;;;;9.97;75.45;100964.83;125980;1099;104264;-80
2021/10/17 05:11:56;;;;;;;33.20;18.27;;;;;;;9.98;76.05;100972.77;126282;1099;104170;-80
2021/10/17 05:14:24;;;;;;;31.83;17.53;;;;;;;10.00;75.57;100968.52;126357;1099;104188;-81
2021/10/17 05:16:52;;;;;;;34.20;18.63;;;;;;;10.02;75.52;100964.22;126372;1099;104194;-80
2021/10/17 05:19:20;;;;;;;32.53;17.97;;;;;;;10.05;75.92;100974.84;126091;1099;104318;-79
2021/10/17 05:21:48;;;;;;;33.23;17.23;;;;;;;10.06;75.60;100976.63;126152;1099;104546;-81
2021/10/17 05:24:16;;;;;;;32.83;18.00;;;;;;;10.04;75.22;100975.66;126218;1099;104412;-80
2021/10/17 05:26:44;;;;;;;32.57;16.83;;;;;;;10.06;75.24;100968.75;126157;1099;104736;-80
2021/10/17 05:29:12;;;;;;;33.03;16.70;;;;;;;10.10;75.54;100979.37;126025;1099;104489;-80
2021/10/17 05:31:40;;;;;;;30.47;17.17;;;;;;;10.12;75.15;100988.23;126224;1099;104596;-80
2021/10/17 05:34:08;;;;;;;31.57;17.97;;;;;;;10.14;75.80;100989.19;126178;1099;104422;-80
2021/10/17 05:36:36;;;;;;;32.10;16.63;;;;;;;10.17;75.20;100995.47;125441;1099;104319;-80
2021/10/17 05:39:06;;;;;;;31.77;17.10;;;;;;;10.20;75.09;100998.23;125378;1099;104223;-80
2021/10/17 05:41:34;;;;;;;32.43;17.53;;;;;;;10.22;75.21;100993.05;126248;1099;104155;-80
2021/10/17 05:44:02;;;;;;;34.60;17.17;;;;;;;10.23;75.06;101002.72;125443;1099;104298;-79
2021/10/17 05:46:30;;;;;;;34.30;17.57;;;;;;;10.24;75.14;101008.04;125376;1099;104219;-79
2021/10/17 05:48:58;;;;;;;31.73;17.00;;;;;;;10.26;75.17;101005.48;126183;1099;104252;-80
2021/10/17 05:51:26;;;;;;;35.47;18.07;;;;;;;10.29;75.06;101005.63;126274;1099;104137;-80
2021/10/17 05:53:54;;;;;;;32.05;17.90;;;;;;;10.30;75.09;101007.43;126308;1099;104156;-79
2021/10/17 05:56:22;;;;;;;32.37;18.30;;;;;;;10.33;75.07;101007.60;126360;1099;104149;-80
2021/10/17 05:58:50;;;;;;;35.90;17.37;;;;;;;10.36;74.81;101012.98;126278;1099;104198;-80
2021/10/17 06:01:18;;;;;;;32.37;16.13;;;;;;;10.38;75.34;101021.81;126246;1098;104150;-79
2021/10/17 06:03:56;;;;;;;32.63;17.07;;;;;;;10.42;74.92;101025.45;126250;1099;104172;-79
2021/10/17 06:06:41;;;;;;;34.80;17.37;;;;;;;10.45;74.95;101028.22;126329;1099;104145;-81
2021/10/17 06:09:09;;;;;;;34.13;18.37;;;;;;;10.47;74.49;101025.66;126357;1099;104140;-81
2021/10/17 06:11:38;;;;;;;31.67;17.70;;;;;;;10.48;74.55;101028.36;126205;1099;104142;-79
2021/10/17 06:14:06;;;;;;;36.73;18.10;;;;;;;10.50;74.54;101025.80;126327;1098;104204;-80
2021/10/17 06:16:34;;;;;;;34.00;18.47;;;;;;;10.51;74.31;101025.87;126289;1099;104318;-80
2021/10/17 06:19:02;;;;;;;34.37;18.10;;;;;;;10.55;74.58;101034.77;126346;1099;104140;-80
2021/10/17 06:21:38;;;;;;;30.40;17.40;;;;;;;10.57;74.44;101035.75;126293;1099;104377;-80
2021/10/17 06:24:06;;;;;;;34.40;17.80;;;;;;;10.59;74.29;101028.83;126249;1099;104318;-81
2021/10/17 06:26:35;;;;;;;34.80;18.27;;;;;;;10.63;74.49;101038.65;126317;1099;104203;-80
2021/10/17 06:29:03;;;;;;;34.20;18.40;;;;;;;10.67;74.28;101029.17;126317;1099;104242;-79
2021/10/17 06:31:31;;;;;;;32.87;17.53;;;;;;;10.67;74.05;101042.30;126319;1099;104168;-80
2021/10/17 06:33:59;;;;;;;32.40;17.40;;;;;;;10.66;73.84;101028.28;126308;1099;104307;-80
2021/10/17 06:36:27;;;;;;;32.10;17.27;;;;;;;10.69;73.85;101036.30;126351;1099;104291;-79
2021/10/17 06:38:55;;;;;;;32.23;17.70;;;;;;;10.70;73.94;101032.81;126362;1099;104189;-80
2021/10/17 06:41:24;;;;;;;35.17;18.37;;;;;;;10.70;73.90;101040.69;126321;1099;104592;-81
2021/10/17 06:43:52;;;;;;;34.07;17.30;;;;;;;10.72;73.80;101033.80;126367;1099;104149;-79
2021/10/17 06:46:21;;;;;;;33.70;17.50;;;;;;;10.75;73.37;101044.44;126282;1098;104290;-79
2021/10/17 06:48:52;;;;;;;34.37;17.00;;;;;;;10.79;73.54;101041.09;126231;1099;104402;-80
2021/10/17 06:51:20;;;;;;;34.57;18.67;;;;;;;10.81;73.26;101038.53;126273;1099;104146;-79
2021/10/17 06:53:49;;;;;;;33.70;18.37;;;;;;;10.86;73.24;101046.61;126313;1099;104191;-80
2021/10/17 06:56:19;;;;;;;32.57;16.43;;;;;;;10.89;73.21;101047.66;126311;1099;105069;-80
2021/10/17 06:58:47;;;;;;;33.97;17.33;;;;;;;10.94;73.41;101046.13;126327;1099;104153;-80
2021/10/17 07:01:14;;;;;;;32.93;16.90;;;;;;;11.01;73.28;101047.27;126204;1099;104276;-80
2021/10/17 07:03:46;;;;;;;32.90;16.03;;;;;;;11.05;72.98;101048.32;126325;1099;104338;-80
2021/10/17 07:06:18;;;;;;;30.47;16.57;;;;;;;11.09;72.99;101053.73;126330;1097;104168;-80
2021/10/17 07:08:50;;;;;;;30.13;16.20;;;;;;;11.18;73.15;101057.61;126333;1099;104153;-80
2021/10/17 07:11:27;;;;;;;32.03;17.07;;;;;;;11.25;73.04;101051.76;126314;1099;104256;-80
2021/10/17 07:13:59;;;;;;;32.30;17.05;;;;;;;11.30;72.72;101058.13;126284;1099;103983;-80
2021/10/17 07:16:29;;;;;;;33.23;16.77;;;;;;;11.37;72.41;101049.64;126368;1099;104155;-81
2021/10/17 07:18:58;;;;;;;28.67;15.13;;;;;;;11.41;72.16;101056.83;126348;1099;104136;-79
2021/10/17 07:21:26;;;;;;;28.83;16.27;;;;;;;11.44;72.19;101062.20;126274;1099;104275;-81
2021/10/17 07:23:54;;;;;;;30.93;17.00;;;;;;;11.49;72.01;101062.40;126336;1098;104284;-80
2021/10/17 07:26:22;;;;;;;31.17;15.37;;;;;;;11.58;71.94;101064.52;126314;1099;104146;-79
2021/10/17 07:28:49;;;;;;;29.30;15.50;;;;;;;11.62;71.77;101055.90;126342;1099;104239;-80
2021/10/17 07:31:18;;;;;;;28.43;15.10;;;;;;;11.64;71.43;101052.51;126207;1099;104294;-79
2021/10/17 07:33:54;;;;;;;30.50;14.63;;;;;;;11.72;71.61;101051.90;126295;1099;104204;-80
2021/10/17 07:36:25;;;;;;;30.10;15.30;;;;;;;11.77;71.23;101056.52;126282;1099;104261;-80
2021/10/17 07:38:58;;;;;;;26.40;14.43;;;;;;;11.82;71.54;101060.21;126326;1099;104418;-80
2021/10/17 07:41:26;;;;;;;28.30;14.70;;;;;;;11.84;70.28;101058.56;125275;1099;104297;-78
2021/10/17 07:44:01;;;;;;;30.97;15.00;;;;;;;11.85;70.42;101060.33;125299;1099;104275;-79
2021/10/17 07:46:30;;;;;;;30.27;14.03;;;;;;;11.88;70.21;101055.20;125346;1099;104720;-81
2021/10/17 07:48:59;;;;;;;26.50;13.63;;;;;;;11.91;70.43;101056.17;125350;1099;104277;-80
2021/10/17 07:51:27;;;;;;;28.93;14.23;;;;;;;11.95;70.33;101058.10;125253;1099;104221;-81
2021/10/17 07:53:55;;;;;;;25.17;12.73;;;;;;;12.00;70.28;101060.09;125243;1099;104345;-80
2021/10/17 07:56:23;;;;;;;27.23;13.00;;;;;;;12.00;69.86;101059.20;125284;1099;104287;-80
2021/10/17 07:58:52;;;;;;;26.93;13.43;;;;;;;11.99;70.04;101054.77;125293;1099;104232;-80
2021/10/17 08:01:21;;;;;;;26.53;13.63;;;;;;;12.01;69.86;101051.37;125300;1099;104269;-80
2021/10/17 08:04:06;;;;;;;27.73;12.63;;;;;;;12.00;69.29;101059.20;125148;1099;108028;-79
2021/10/17 08:06:40;;;;;;;25.43;12.73;;;;;;;11.99;69.19;101068.80;125248;1099;104338;-78
2021/10/17 08:09:08;;;;;;;29.30;13.60;;;;;;;11.95;69.17;101052.84;125279;1102;104319;-79
2021/10/17 08:11:38;;;;;;;26.83;12.77;;;;;;;11.97;69.03;101054.70;125322;1099;104444;-80
2021/10/17 08:14:06;;;;;;;25.67;12.23;;;;;;;12.02;68.23;101054.88;126182;1099;104189;-79
2021/10/17 08:16:41;;;;;;;24.57;12.40;;;;;;;12.09;68.40;101056.92;126314;1099;104149;-80
2021/10/17 08:19:09;;;;;;;24.57;11.80;;;;;;;12.18;67.60;101053.73;126351;1099;104219;-79
2021/10/17 08:21:37;;;;;;;25.67;11.90;;;;;;;12.27;67.32;101054.08;126356;1099;104168;-80
2021/10/17 08:24:08;;;;;;;24.97;11.63;;;;;;;12.36;67.58;101051.80;126235;1099;104325;-79
2021/10/17 08:26:42;;;;;;;23.87;11.17;;;;;;;12.47;66.12;101057.45;126309;1099;104165;-79
2021/10/17 08:29:13;;;;;;;24.97;11.43;;;;;;;12.59;67.24;101052.64;126304;1098;104354;-79
2021/10/17 08:31:41;;;;;;;21.40;10.63;;;;;;;12.72;66.18;101055.72;126317;1099;104190;-80
2021/10/17 08:34:12;;;;;;;22.67;10.37;;;;;;;12.76;65.68;101063.78;126294;1099;104271;-79
2021/10/17 08:36:41;;;;;;;22.80;10.50;;;;;;;12.76;65.05;101069.05;126349;1099;104143;-79
2021/10/17 08:39:11;;;;;;;20.83;10.13;;;;;;;12.78;65.60;101050.67;126306;1099;104142;-80
2021/10/17 08:41:46;;;;;;;20.00;8.73;;;;;;;12.89;62.16;101048.42;126286;1099;104287;-80
2021/10/17 08:44:17;;;;;;;21.60;9.87;;;;;;;13.02;64.26;101047.09;126288;1099;104156;-78
2021/10/17 08:47:00;;;;;;;20.13;9.20;;;;;;;13.09;64.17;101046.48;126331;1099;104156;-79
2021/10/17 08:49:34;;;;;;;20.87;9.80;;;;;;;13.28;64.17;101046.23;126335;1099;104150;-78
2021/10/17 08:52:09;;;;;;;22.63;9.97;;;;;;;13.44;63.73;101044.14;126319;1099;104166;-78
2021/10/17 08:54:39;;;;;;;20.97;8.80;;;;;;;13.66;62.62;101045.72;126220;1098;104169;-78
2021/10/17 08:57:08;;;;;;;18.23;8.07;;;;;;;13.83;62.87;101039.22;126368;1099;104265;-79
2021/10/17 08:59:36;;;;;;;15.50;7.57;;;;;;;14.03;62.06;101057.42;126318;1099;104146;-79
2021/10/17 09:02:13;;;;;;;20.90;8.00;;;;;;;14.17;61.84;101037.61;126369;1099;104605;-79
2021/10/17 09:04:43;;;;;;;18.53;8.20;;;;;;;14.29;60.93;101039.73;126288;1099;104149;-80
2021/10/17 09:07:28;;;;;;;18.20;7.27;;;;;;;14.42;60.68;101040.97;126311;1099;104217;-79
2021/10/17 09:10:11;;;;;;;16.10;7.60;;;;;;;14.49;60.76;101029.75;126321;1099;104243;-79
2021/10/17 09:12:43;;;;;;;17.70;7.53;;;;;;;14.48;57.89;101046.43;126253;1099;104188;-78
2021/10/17 09:15:25;;;;;;;19.47;7.20;;;;;;;14.51;60.43;101045.62;126277;1099;104245;-79
2021/10/17 09:18:09;;;;;;;15.67;6.50;;;;;;;14.55;60.20;101044.84;126277;1099;104143;-79
2021/10/17 09:20:52;;;;;;;16.82;6.85;;;;;;;14.61;58.80;101046.81;126312;1099;104210;-80
2021/10/17 09:23:34;;;;;;;14.10;6.20;;;;;;;14.60;58.10;101040.64;126332;1099;104271;-79
2021/10/17 09:26:14;;;;;;;17.27;6.80;;;;;;;14.59;58.05;101038.81;126318;1099;111870;-79
2021/10/17 09:28:42;;;;;;;16.90;6.50;;;;;;;14.71;58.31;101036.55;126317;1099;104149;-79
2021/10/17 09:31:13;;;;;;;13.40;6.10;;;;;;;14.84;57.46;101026.31;126309;1099;104265;-79
2021/10/17 09:33:45;;;;;;;15.37;6.60;;;;;;;14.87;55.94;101035.20;126302;1099;104267;-78
2021/10/17 09:36:19;;;;;;;17.40;7.60;;;;;;;14.89;56.35;101032.60;126320;1099;104156;-79
2021/10/17 09:39:13;;;;;;;14.20;6.53;;;;;;;14.89;56.44;101022.91;126339;1098;104214;-79
2021/10/17 09:42:01;;;;;;;13.07;6.23;;;;;;;14.94;55.88;101030.97;126341;1099;104280;-79
2021/10/17 09:44:38;;;;;;;14.07;6.23;;;;;;;14.91;55.41;101025.59;126237;1099;104149;-79
2021/10/17 09:47:07;;;;;;;15.27;5.97;;;;;;;14.92;55.26;101017.71;126309;1099;104156;-78
2021/10/17 09:49:35;;;;;;;13.30;6.07;;;;;;;14.88;53.74;101017.59;126335;1099;104147;-79
2021/10/17 09:52:17;;;;;;;16.43;6.67;;;;;;;14.90;55.44;101010.63;126296;1098;104198;-79
2021/10/17 09:54:48;;;;;;;15.48;6.75;;;;;;;15.00;55.66;101015.27;126242;1099;104271;-79
2021/10/17 09:57:17;;;;;;;15.63;6.77;;;;;;;15.09;54.14;101006.70;126295;1099;104162;-78
2021/10/17 09:59:45;;;;;;;17.90;6.90;;;;;;;15.08;54.51;101012.82;126187;1099;104162;-78
2021/10/17 10:02:14;;;;;;;15.53;6.43;;;;;;;15.07;53.03;101009.30;126276;1099;104141;-78
2021/10/17 10:04:45;;;;;;;13.67;6.77;;;;;;;15.14;53.14;101012.09;126272;1099;104168;-79
2021/10/17 10:07:21;;;;;;;17.40;6.90;;;;;;;15.13;52.61;101007.66;126335;1099;104144;-78
2021/10/17 10:09:50;;;;;;;20.87;7.20;;;;;;;15.14;54.08;101006.81;126315;1099;104674;-79
2021/10/17 10:12:19;;;;;;;17.37;6.80;;;;;;;15.16;54.04;101007.73;126275;1099;105114;-79
2021/10/17 10:14:50;;;;;;;17.30;6.90;;;;;;;15.13;52.79;101007.66;126302;1098;104284;-79
2021/10/17 10:17:21;;;;;;;15.33;6.80;;;;;;;15.08;52.50;101000.53;126332;1099;104172;-79
2021/10/17 10:19:49;;;;;;;18.43;7.13;;;;;;;15.12;52.81;100997.96;126357;1099;104150;-78
2021/10/17 10:22:18;;;;;;;15.43;5.90;;;;;;;15.17;52.95;101001.60;126344;1099;104232;-78
2021/10/17 10:24:51;;;;;;;16.00;6.97;;;;;;;15.13;51.62;100991.80;126244;1099;104146;-80
2021/10/17 10:27:20;;;;;;;15.45;6.33;;;;;;;15.12;52.79;100997.96;126336;1098;104239;-80
2021/10/17 10:29:48;;;;;;;18.77;6.43;;;;;;;15.05;49.52;100992.52;126340;1099;104146;-78
2021/10/17 10:32:23;;;;;;;16.60;6.13;;;;;;;15.02;51.38;100992.44;126339;1099;104563;-78
2021/10/17 10:34:55;;;;;;;17.10;6.30;;;;;;;15.03;49.67;100988.92;126298;1099;104137;-78
2021/10/17 10:37:25;;;;;;;15.07;6.33;;;;;;;15.08;51.55;100989.03;126249;1099;109005;-80
2021/10/17 10:40:09;;;;;;;15.33;6.30;;;;;;;15.14;51.55;100986.55;126313;1099;104281;-79
2021/10/17 10:42:39;;;;;;;17.85;6.80;;;;;;;15.27;51.73;100982.48;126342;1099;104162;-80
2021/10/17 10:45:24;;;;;;;16.07;6.60;;;;;;;15.38;51.77;100982.70;126342;1099;104156;-79
2021/10/17 10:48:16;;;;;;;19.67;6.87;;;;;;;15.48;51.77;100983.84;126286;1099;118671;-78
2021/10/17 10:50:46;;;;;;;13.57;5.67;;;;;;;15.42;49.93;100979.29;126297;1099;104153;-80
2021/10/17 10:53:48;;;;;;;12.37;5.13;;;;;;;15.42;49.71;100971.36;126262;1099;104210;-78
2021/10/17 10:56:40;;;;;;;15.00;4.83;;;;;;;15.30;48.96;100971.95;126247;1099;104194;-79
2021/10/17 10:59:09;;;;;;;11.57;5.23;;;;;;;15.24;48.83;100969.19;126375;1099;104165;-79
2021/10/17 11:01:52;;;;;;;11.60;5.10;;;;;;;15.25;49.04;100971.87;126301;1099;104323;-79
2021/10/17 11:04:48;;;;;;;11.13;4.60;;;;;;;15.18;49.26;100972.56;126298;1099;104149;-80
2021/10/17 11:07:21;;;;;;;14.40;5.10;;;;;;;15.13;48.83;100971.56;126240;1099;104169;-79
2021/10/17 11:09:50;;;;;;;12.30;4.83;;;;;;;15.13;48.96;100960.08;126310;1099;104152;-79
2021/10/17 11:12:45;;;;;;;14.90;5.20;;;;;;;15.17;48.96;100956.66;126351;1099;104271;-79